createdAt,value
2023-03-02T08:29:14.964Z,14.02
2023-03-02T08:31:41.683Z,14.07
2023-03-02T08:34:08.617Z,12.82
2023-03-02T08:36:35.561Z,14.25
2023-03-02T08:39:02.517Z,14.35
2023-03-02T08:41:29.478Z,11.85
2023-03-02T08:43:56.670Z,13.23
2023-03-02T08:46:23.360Z,12.85
2023-03-02T08:48:51.278Z,16.27
2023-03-02T08:51:21.894Z,12.30
2023-03-02T08:53:51.143Z,13.52
2023-03-02T08:56:24.229Z,13.93
2023-03-02T08:58:52.613Z,13.65
2023-03-02T09:01:25.447Z,14.60
2023-03-02T09:03:52.724Z,13.60
2023-03-02T09:06:19.458Z,13.80
2023-03-02T09:08:46.999Z,13.73
2023-03-02T09:11:13.863Z,12.35
2023-03-02T09:13:41.653Z,13.65
2023-03-02T09:16:08.980Z,13.82
2023-03-02T09:18:36.580Z,13.13
2023-03-02T09:21:03.866Z,13.52
2023-03-02T09:23:31.159Z,12.70
2023-03-02T09:25:57.828Z,14.05
2023-03-02T09:28:25.243Z,12.43
2023-03-02T09:30:53.903Z,14.32
2023-03-02T09:33:21.241Z,13.70
2023-03-02T09:35:47.917Z,13.40
2023-03-02T09:38:17.023Z,11.98
2023-03-02T09:40:50.012Z,11.80
2023-03-02T09:43:40.748Z,12.80
2023-03-02T09:46:35.132Z,13.98
2023-03-02T09:49:17.417Z,13.40
2023-03-02T09:51:54.793Z,11.38
2023-03-02T09:54:25.767Z,10.52
2023-03-02T09:56:57.980Z,12.00
2023-03-02T10:00:01.631Z,10.05
2023-03-02T10:02:45.807Z,12.25
2023-03-02T10:05:23.348Z,11.77
2023-03-02T10:07:50.280Z,11.55
2023-03-02T10:10:28.443Z,11.90
2023-03-02T10:13:05.918Z,11.80
2023-03-02T10:16:05.513Z,12.35
2023-03-02T10:19:04.933Z,10.65
2023-03-02T10:21:41.250Z,12.55
2023-03-02T10:24:11.539Z,11.45
2023-03-02T10:26:46.611Z,10.23
2023-03-02T10:29:34.452Z,12.60
2023-03-02T10:32:21.132Z,12.32
2023-03-02T10:34:50.145Z,12.43
2023-03-02T10:37:28.390Z,11.35
2023-03-02T10:39:56.424Z,10.55
2023-03-02T10:42:40.295Z,11.05
2023-03-02T10:45:29.727Z,11.35
2023-03-02T10:48:05.078Z,10.55
2023-03-02T10:50:32.360Z,9.98
2023-03-02T10:53:04.816Z,9.32
2023-03-02T10:55:33.891Z,10.40
2023-03-02T10:58:06.584Z,10.98
2023-03-02T11:00:36.806Z,9.73
2023-03-02T11:03:21.001Z,10.00
2023-03-02T11:05:47.913Z,10.70
2023-03-02T11:08:28.766Z,8.60
2023-03-02T11:11:01.577Z,10.02
2023-03-02T11:13:35.495Z,8.93
2023-03-02T11:16:29.238Z,10.05
2023-03-02T11:19:05.579Z,9.30
2023-03-02T11:21:38.328Z,9.65
2023-03-02T11:24:16.921Z,6.68
2023-03-02T11:26:55.683Z,9.50
2023-03-02T11:29:37.344Z,8.90
2023-03-02T11:32:30.800Z,9.40
2023-03-02T11:35:24.571Z,9.07
2023-03-02T11:37:54.770Z,7.97
2023-03-02T11:40:35.083Z,7.68
2023-03-02T11:43:04.861Z,7.97
2023-03-02T11:45:41.868Z,9.35
2023-03-02T11:48:23.646Z,8.65
2023-03-02T11:51:01.812Z,7.85
2023-03-02T11:53:53.014Z,7.97
2023-03-02T11:56:19.974Z,7.93
2023-03-02T11:58:53.502Z,8.65
2023-03-02T12:01:28.007Z,8.32
2023-03-02T12:06:41.032Z,6.50
2023-03-02T12:09:28.524Z,7.60
2023-03-02T12:11:56.700Z,7.13
2023-03-02T12:14:35.337Z,7.05
2023-03-02T12:17:25.240Z,7.03
2023-03-02T12:20:07.008Z,6.53
2023-03-02T12:22:35.394Z,6.40
2023-03-02T12:25:28.283Z,6.97
2023-03-02T12:27:55.830Z,7.40
2023-03-02T12:30:26.649Z,6.85
2023-03-02T12:33:16.547Z,6.82
2023-03-02T12:35:43.739Z,7.40
2023-03-02T12:38:39.460Z,6.60
2023-03-02T12:41:22.536Z,7.68
2023-03-02T12:44:01.233Z,6.00
2023-03-02T12:46:33.325Z,6.45
2023-03-02T12:49:21.624Z,5.90
2023-03-02T12:52:22.776Z,6.60
2023-03-02T12:55:07.648Z,5.85
2023-03-02T12:57:39.067Z,6.32
2023-03-02T13:00:15.268Z,7.07
2023-03-02T13:02:47.771Z,5.88
2023-03-02T13:05:20.788Z,7.20
2023-03-02T13:08:04.910Z,6.90
2023-03-02T13:10:42.815Z,6.28
2023-03-02T13:13:27.829Z,6.50
2023-03-02T13:16:14.680Z,6.63
2023-03-02T13:18:41.869Z,6.65
2023-03-02T13:21:13.140Z,6.82
2023-03-02T13:23:50.225Z,7.05
2023-03-02T13:26:35.230Z,7.47
2023-03-02T13:29:31.011Z,6.75
2023-03-02T13:32:07.761Z,6.32
2023-03-02T13:34:35.108Z,5.97
2023-03-02T13:37:13.882Z,6.30
2023-03-02T13:39:40.603Z,6.40
2023-03-02T13:42:24.337Z,5.90
2023-03-02T13:44:51.978Z,5.70
2023-03-02T13:47:24.095Z,4.95
2023-03-02T13:49:50.945Z,6.93
2023-03-02T13:52:30.437Z,6.30
2023-03-02T13:54:57.084Z,6.53
2023-03-02T13:57:33.541Z,6.30
2023-03-02T14:00:00.877Z,6.05
2023-03-02T14:02:29.522Z,5.65
2023-03-02T14:04:57.664Z,5.97
2023-03-02T14:07:24.455Z,5.82
2023-03-02T14:09:56.616Z,5.60
2023-03-02T14:12:34.797Z,5.78
2023-03-02T14:15:03.184Z,5.65
2023-03-02T14:17:30.106Z,5.70
2023-03-02T14:19:56.933Z,5.80
2023-03-02T14:22:26.520Z,7.57
2023-03-02T14:24:53.658Z,8.30
2023-03-02T14:27:20.769Z,6.70
2023-03-02T14:29:47.684Z,9.13
2023-03-02T14:32:15.334Z,8.23
2023-03-02T14:34:42.379Z,9.25
2023-03-02T14:37:16.220Z,8.98
2023-03-02T14:39:48.086Z,8.85
2023-03-02T14:42:17.103Z,8.93
2023-03-02T14:44:46.356Z,8.65
2023-03-02T14:47:16.646Z,9.40
2023-03-02T14:49:53.736Z,8.73
2023-03-02T14:52:28.050Z,8.93
2023-03-02T14:57:26.708Z,8.23
2023-03-02T14:59:54.006Z,8.40
2023-03-02T15:02:26.128Z,7.97
2023-03-02T15:04:56.617Z,9.25
2023-03-02T15:07:25.368Z,8.32
2023-03-02T15:09:52.057Z,9.00
2023-03-02T15:12:18.798Z,8.77
2023-03-02T15:14:48.599Z,9.90
2023-03-02T15:17:15.266Z,8.90
2023-03-02T15:19:42.216Z,9.35
2023-03-02T15:22:08.976Z,8.75
2023-03-02T15:24:35.742Z,9.25
2023-03-02T15:27:02.361Z,9.32
2023-03-02T15:29:28.999Z,8.88
2023-03-02T15:31:55.822Z,9.13
2023-03-02T15:34:22.629Z,8.98
2023-03-02T15:36:49.380Z,8.75
2023-03-02T15:39:16.758Z,8.85
2023-03-02T15:41:46.721Z,9.38
2023-03-02T15:44:21.905Z,9.27
2023-03-02T15:46:59.456Z,9.05
2023-03-02T15:49:28.485Z,8.93
2023-03-02T15:51:57.655Z,8.77
2023-03-02T15:54:28.490Z,7.93
2023-03-02T15:56:55.834Z,8.80
2023-03-02T15:59:25.168Z,9.93
2023-03-02T16:01:52.189Z,8.80
2023-03-02T16:04:19.259Z,10.05
2023-03-02T16:06:47.901Z,10.18
2023-03-02T16:09:14.556Z,9.88
2023-03-02T16:11:41.381Z,10.20
2023-03-02T16:14:08.266Z,10.85
2023-03-02T16:16:35.550Z,10.38
2023-03-02T16:19:02.240Z,10.10
2023-03-02T16:21:41.655Z,10.07
2023-03-02T16:24:14.105Z,9.57
2023-03-02T16:26:40.744Z,10.20
2023-03-02T16:29:10.360Z,9.63
2023-03-02T16:31:38.401Z,9.63
2023-03-02T16:34:08.793Z,8.63
2023-03-02T16:36:37.949Z,8.98
2023-03-02T16:39:06.523Z,8.40
2023-03-02T16:41:33.646Z,9.30
2023-03-02T16:44:01.369Z,18.05
2023-03-02T16:46:31.141Z,8.50
2023-03-02T16:49:01.778Z,8.75
2023-03-02T16:51:29.655Z,9.18
2023-03-02T16:53:58.267Z,9.05
2023-03-02T16:56:25.492Z,9.98
2023-03-02T16:58:55.665Z,10.27
2023-03-02T17:01:23.123Z,10.93
2023-03-02T17:03:53.237Z,9.85
2023-03-02T17:06:22.338Z,10.18
2023-03-02T17:08:50.808Z,10.73
2023-03-02T17:11:17.952Z,10.25
2023-03-02T17:13:44.718Z,11.43
2023-03-02T17:16:11.899Z,11.52
2023-03-02T17:18:38.718Z,10.75
2023-03-02T17:21:05.849Z,11.48
2023-03-02T17:23:35.789Z,12.00
2023-03-02T17:26:13.511Z,10.90
2023-03-02T17:28:41.435Z,12.13
2023-03-02T17:31:09.250Z,12.45
2023-03-02T17:33:37.672Z,12.18
2023-03-02T17:36:10.687Z,12.57
2023-03-02T17:38:37.870Z,12.32
2023-03-02T17:41:06.128Z,11.90
2023-03-02T17:43:35.510Z,12.43
2023-03-02T17:46:22.567Z,12.65
2023-03-02T17:48:54.058Z,11.98
2023-03-02T17:51:22.241Z,12.35
2023-03-02T17:53:50.436Z,12.00
2023-03-02T17:56:21.933Z,12.07
2023-03-02T17:58:57.466Z,12.00
2023-03-02T18:01:24.738Z,11.73
2023-03-02T18:03:51.525Z,12.00
2023-03-02T18:06:20.444Z,11.93
2023-03-02T18:08:48.979Z,11.20
2023-03-02T18:11:16.932Z,11.38
2023-03-02T18:13:43.627Z,11.40
2023-03-02T18:16:12.182Z,11.35
2023-03-02T18:18:38.918Z,12.00
2023-03-02T18:21:05.871Z,10.77
2023-03-02T18:23:32.941Z,10.93
2023-03-02T18:25:59.619Z,10.63
2023-03-02T18:28:26.486Z,11.30
2023-03-02T18:30:53.194Z,11.80
2023-03-02T18:33:19.964Z,11.20
2023-03-02T18:35:46.775Z,10.82
2023-03-02T18:38:13.475Z,11.40
2023-03-02T18:40:40.440Z,11.57
2023-03-02T18:43:07.041Z,10.75
2023-03-02T18:45:34.026Z,10.88
2023-03-02T18:48:01.118Z,11.23
2023-03-02T18:50:28.351Z,12.00
2023-03-02T18:52:55.047Z,10.90
2023-03-02T18:55:24.281Z,11.18
2023-03-02T18:57:53.880Z,10.63
2023-03-02T19:00:27.341Z,10.57
2023-03-02T19:02:55.026Z,10.13
2023-03-02T19:05:21.761Z,11.32
2023-03-02T19:07:50.090Z,9.90
2023-03-02T19:10:19.506Z,9.30
2023-03-02T19:12:47.159Z,9.82
2023-03-02T19:15:13.954Z,9.68
2023-03-02T19:17:45.172Z,9.25
2023-03-02T19:20:16.540Z,9.05
2023-03-02T19:22:43.209Z,8.35
2023-03-02T19:25:10.714Z,9.05
2023-03-02T19:27:37.730Z,9.65
2023-03-02T19:30:09.055Z,9.68
2023-03-02T19:32:37.228Z,9.85
2023-03-02T19:35:05.977Z,10.02
2023-03-02T19:37:33.330Z,8.75
2023-03-02T19:40:00.180Z,8.80
2023-03-02T19:42:28.054Z,8.48
2023-03-02T19:44:54.718Z,9.45
2023-03-02T19:47:21.319Z,9.45
2023-03-02T19:49:47.956Z,9.45
2023-03-02T19:52:14.540Z,8.90
2023-03-02T19:54:43.458Z,9.07
2023-03-02T19:57:10.297Z,9.38
2023-03-02T19:59:39.651Z,9.63
2023-03-02T20:02:06.384Z,9.48
2023-03-02T20:04:33.693Z,8.40
2023-03-02T20:07:02.997Z,10.15
2023-03-02T20:09:29.901Z,9.35
2023-03-02T20:11:58.730Z,10.23
2023-03-02T20:14:33.802Z,8.80
2023-03-02T20:17:04.552Z,9.95
2023-03-02T20:19:31.422Z,9.48
2023-03-02T20:21:58.102Z,10.45
2023-03-02T20:24:24.819Z,9.63
2023-03-02T20:26:51.441Z,10.07
2023-03-02T20:29:18.913Z,9.85
2023-03-02T20:31:45.763Z,9.90
2023-03-02T20:34:15.863Z,10.18
2023-03-02T20:36:44.342Z,9.82
2023-03-02T20:39:16.190Z,9.73
2023-03-02T20:41:43.607Z,9.40
2023-03-02T20:44:13.439Z,10.32
2023-03-02T20:46:45.793Z,10.50
2023-03-02T20:49:15.349Z,10.60
2023-03-02T20:51:49.178Z,10.00
2023-03-02T20:54:16.809Z,10.70
2023-03-02T20:56:43.426Z,10.20
2023-03-02T20:59:10.308Z,10.82
2023-03-02T21:01:37.113Z,10.73
2023-03-02T21:04:04.037Z,12.10
2023-03-02T21:06:33.350Z,11.35
2023-03-02T21:09:04.216Z,11.63
2023-03-02T21:11:31.060Z,11.20
2023-03-02T21:13:59.524Z,11.90
2023-03-02T21:16:36.909Z,10.02
2023-03-02T21:19:08.733Z,11.55
2023-03-02T21:21:41.810Z,11.75
2023-03-02T21:24:11.099Z,11.65
2023-03-02T21:26:38.170Z,10.45
2023-03-02T21:29:05.646Z,11.43
2023-03-02T21:31:32.963Z,12.25
2023-03-02T21:34:00.634Z,11.85
2023-03-02T21:36:28.137Z,10.27
2023-03-02T21:38:55.120Z,13.27
2023-03-02T21:41:22.260Z,12.73
2023-03-02T21:43:49.491Z,12.18
2023-03-02T21:46:20.071Z,12.13
2023-03-02T21:48:47.125Z,12.85
2023-03-02T21:51:14.655Z,13.68
2023-03-02T21:53:41.845Z,13.70
2023-03-02T21:56:09.369Z,10.88
2023-03-02T21:58:35.972Z,12.38
2023-03-02T22:01:02.724Z,12.32
2023-03-02T22:03:29.435Z,13.45
2023-03-02T22:05:56.206Z,14.25
2023-03-02T22:08:22.797Z,12.32
2023-03-02T22:10:51.445Z,15.23
2023-03-02T22:13:27.056Z,11.25
2023-03-02T22:16:11.639Z,14.82
2023-03-02T22:18:38.831Z,13.77
2023-03-02T22:21:20.677Z,11.45
2023-03-02T22:23:47.432Z,13.18
2023-03-02T22:26:16.863Z,15.88
2023-03-02T22:28:43.773Z,13.73
2023-03-02T22:31:22.003Z,15.23
2023-03-02T22:33:49.984Z,15.52
2023-03-02T22:36:22.451Z,15.10
2023-03-02T22:38:49.773Z,15.70
2023-03-02T22:41:19.376Z,15.25
2023-03-02T22:43:46.492Z,16.63
2023-03-02T22:46:17.243Z,15.57
2023-03-02T22:48:46.437Z,14.63
2023-03-02T22:51:14.990Z,15.35
2023-03-02T22:53:48.197Z,15.85
2023-03-02T22:56:30.401Z,14.15
2023-03-02T22:59:09.195Z,16.27
2023-03-02T23:01:40.582Z,14.60
2023-03-02T23:04:30.113Z,15.57
2023-03-02T23:07:02.571Z,15.30
2023-03-02T23:09:32.336Z,13.82
2023-03-02T23:12:09.846Z,15.45
2023-03-02T23:14:52.172Z,14.07
2023-03-02T23:17:22.248Z,14.93
2023-03-02T23:19:51.449Z,14.90
2023-03-02T23:22:19.087Z,14.80
2023-03-02T23:24:45.826Z,13.98
2023-03-02T23:27:12.559Z,13.85
2023-03-02T23:29:39.699Z,13.27
2023-03-02T23:32:06.575Z,13.90
2023-03-02T23:34:33.303Z,13.75
2023-03-02T23:37:00.429Z,13.25
2023-03-02T23:39:27.409Z,13.02
